sensor_id;sensor_type;location;lat;lon;timestamp;P1;durP1;ratioP1;P2;durP2;ratioP2
19814;SDS011;10067;53.092;8.800;2023-05-14T00:00:52;73.72;;;56.95;;
19814;SDS011;10067;53.092;8.800;2023-05-14T00:03:19;81.18;;;58.75;;
19814;SDS011;10067;53.092;8.800;2023-05-14T00:05:46;83.60;;;58.10;;
19814;SDS011;10067;53.092;8.800;2023-05-14T00:08:13;64.43;;;45.05;;
19814;SDS011;10067;53.092;8.800;2023-05-14T00:10:40;52.45;;;39.22;;
19814;SDS011;10067;53.092;8.800;2023-05-14T00:13:07;44.20;;;32.83;;
19814;SDS011;10067;53.092;8.800;2023-05-14T00:15:33;37.72;;;25.58;;
19814;SDS011;10067;53.092;8.800;2023-05-14T00:17:59;32.47;;;21.17;;
19814;SDS011;10067;53.092;8.800;2023-05-14T00:20:26;19.83;;;16.52;;
19814;SDS011;10067;53.092;8.800;2023-05-14T00:22:52;24.98;;;16.00;;
19814;SDS011;10067;53.092;8.800;2023-05-14T00:25:19;21.02;;;16.95;;
19814;SDS011;10067;53.092;8.800;2023-05-14T00:27:46;23.23;;;17.75;;
19814;SDS011;10067;53.092;8.800;2023-05-14T00:30:13;23.27;;;18.45;;
19814;SDS011;10067;53.092;8.800;2023-05-14T00:32:39;31.15;;;21.00;;
19814;SDS011;10067;53.092;8.800;2023-05-14T00:35:06;28.42;;;21.10;;
19814;SDS011;10067;53.092;8.800;2023-05-14T00:37:32;35.78;;;18.42;;
19814;SDS011;10067;53.092;8.800;2023-05-14T00:40:00;23.17;;;17.00;;
19814;SDS011;10067;53.092;8.800;2023-05-14T00:42:27;22.45;;;15.27;;
19814;SDS011;10067;53.092;8.800;2023-05-14T00:44:55;17.15;;;13.20;;
19814;SDS011;10067;53.092;8.800;2023-05-14T00:47:21;20.42;;;13.23;;
19814;SDS011;10067;53.092;8.800;2023-05-14T00:49:48;17.52;;;12.18;;
19814;SDS011;10067;53.092;8.800;2023-05-14T00:52:14;16.48;;;14.13;;
19814;SDS011;10067;53.092;8.800;2023-05-14T00:54:41;15.95;;;12.55;;
19814;SDS011;10067;53.092;8.800;2023-05-14T00:57:07;16.05;;;12.10;;
19814;SDS011;10067;53.092;8.800;2023-05-14T00:59:34;17.38;;;12.32;;
19814;SDS011;10067;53.092;8.800;2023-05-14T01:02:02;17.85;;;11.25;;
19814;SDS011;10067;53.092;8.800;2023-05-14T01:04:28;12.88;;;11.15;;
19814;SDS011;10067;53.092;8.800;2023-05-14T01:06:57;14.00;;;11.35;;
19814;SDS011;10067;53.092;8.800;2023-05-14T01:09:28;14.15;;;10.80;;
19814;SDS011;10067;53.092;8.800;2023-05-14T01:11:59;16.75;;;11.20;;
19814;SDS011;10067;53.092;8.800;2023-05-14T01:14:31;11.25;;;9.50;;
19814;SDS011;10067;53.092;8.800;2023-05-14T01:16:59;14.30;;;10.73;;
19814;SDS011;10067;53.092;8.800;2023-05-14T01:19:32;11.77;;;9.45;;
19814;SDS011;10067;53.092;8.800;2023-05-14T01:22:00;18.80;;;9.93;;
19814;SDS011;10067;53.092;8.800;2023-05-14T01:24:26;13.07;;;9.32;;
19814;SDS011;10067;53.092;8.800;2023-05-14T01:26:53;13.10;;;9.05;;
19814;SDS011;10067;53.092;8.800;2023-05-14T01:29:23;12.68;;;9.38;;
19814;SDS011;10067;53.092;8.800;2023-05-14T01:31:52;17.88;;;10.35;;
19814;SDS011;10067;53.092;8.800;2023-05-14T01:34:21;13.32;;;9.55;;
19814;SDS011;10067;53.092;8.800;2023-05-14T01:36:47;13.77;;;10.07;;
19814;SDS011;10067;53.092;8.800;2023-05-14T01:39:16;15.88;;;10.77;;
19814;SDS011;10067;53.092;8.800;2023-05-14T01:41:43;11.77;;;10.38;;
19814;SDS011;10067;53.092;8.800;2023-05-14T01:44:10;15.93;;;10.43;;
19814;SDS011;10067;53.092;8.800;2023-05-14T01:46:36;19.02;;;11.10;;
19814;SDS011;10067;53.092;8.800;2023-05-14T01:49:03;11.18;;;9.95;;
19814;SDS011;10067;53.092;8.800;2023-05-14T01:51:29;13.15;;;9.93;;
19814;SDS011;10067;53.092;8.800;2023-05-14T01:53:56;18.65;;;11.50;;
19814;SDS011;10067;53.092;8.800;2023-05-14T01:56:24;11.48;;;10.32;;
19814;SDS011;10067;53.092;8.800;2023-05-14T01:58:51;12.27;;;10.60;;
19814;SDS011;10067;53.092;8.800;2023-05-14T02:01:17;13.23;;;10.63;;
19814;SDS011;10067;53.092;8.800;2023-05-14T02:03:43;13.45;;;10.07;;
19814;SDS011;10067;53.092;8.800;2023-05-14T02:06:10;12.15;;;10.07;;
19814;SDS011;10067;53.092;8.800;2023-05-14T02:08:36;12.75;;;10.10;;
19814;SDS011;10067;53.092;8.800;2023-05-14T02:11:03;14.38;;;10.82;;
19814;SDS011;10067;53.092;8.800;2023-05-14T02:13:31;12.32;;;10.52;;
19814;SDS011;10067;53.092;8.800;2023-05-14T02:15:57;13.55;;;10.88;;
19814;SDS011;10067;53.092;8.800;2023-05-14T02:18:23;15.18;;;11.27;;
19814;SDS011;10067;53.092;8.800;2023-05-14T02:20:50;22.95;;;10.88;;
19814;SDS011;10067;53.092;8.800;2023-05-14T02:23:16;17.02;;;10.57;;
19814;SDS011;10067;53.092;8.800;2023-05-14T02:25:43;13.60;;;11.20;;
19814;SDS011;10067;53.092;8.800;2023-05-14T02:28:09;19.20;;;11.25;;
19814;SDS011;10067;53.092;8.800;2023-05-14T02:30:37;12.23;;;10.50;;
19814;SDS011;10067;53.092;8.800;2023-05-14T02:33:04;16.40;;;11.30;;
19814;SDS011;10067;53.092;8.800;2023-05-14T02:35:30;13.68;;;10.50;;
19814;SDS011;10067;53.092;8.800;2023-05-14T02:37:56;14.30;;;10.20;;
19814;SDS011;10067;53.092;8.800;2023-05-14T02:40:23;17.63;;;12.93;;
19814;SDS011;10067;53.092;8.800;2023-05-14T02:42:49;12.98;;;10.90;;
19814;SDS011;10067;53.092;8.800;2023-05-14T02:45:16;16.20;;;10.57;;
19814;SDS011;10067;53.092;8.800;2023-05-14T02:47:44;14.75;;;10.63;;
19814;SDS011;10067;53.092;8.800;2023-05-14T02:50:10;17.50;;;11.18;;
19814;SDS011;10067;53.092;8.800;2023-05-14T02:52:36;15.48;;;10.75;;
19814;SDS011;10067;53.092;8.800;2023-05-14T02:55:03;16.67;;;10.68;;
19814;SDS011;10067;53.092;8.800;2023-05-14T02:57:30;15.27;;;10.75;;
19814;SDS011;10067;53.092;8.800;2023-05-14T02:59:57;13.77;;;10.30;;
19814;SDS011;10067;53.092;8.800;2023-05-14T03:02:23;11.82;;;10.25;;
19814;SDS011;10067;53.092;8.800;2023-05-14T03:04:51;12.95;;;10.40;;
19814;SDS011;10067;53.092;8.800;2023-05-14T03:07:17;13.63;;;11.07;;
19814;SDS011;10067;53.092;8.800;2023-05-14T03:09:44;11.07;;;9.85;;
19814;SDS011;10067;53.092;8.800;2023-05-14T03:12:10;12.63;;;10.10;;
19814;SDS011;10067;53.092;8.800;2023-05-14T03:14:38;13.75;;;11.23;;
19814;SDS011;10067;53.092;8.800;2023-05-14T03:17:04;12.75;;;10.38;;
19814;SDS011;10067;53.092;8.800;2023-05-14T03:19:31;14.55;;;10.00;;
19814;SDS011;10067;53.092;8.800;2023-05-14T03:21:58;12.55;;;10.27;;
19814;SDS011;10067;53.092;8.800;2023-05-14T03:24:25;11.10;;;9.88;;
19814;SDS011;10067;53.092;8.800;2023-05-14T03:26:51;13.82;;;10.40;;
19814;SDS011;10067;53.092;8.800;2023-05-14T03:29:18;11.85;;;9.95;;
19814;SDS011;10067;53.092;8.800;2023-05-14T03:31:44;16.88;;;9.82;;
19814;SDS011;10067;53.092;8.800;2023-05-14T03:34:10;12.38;;;9.93;;
19814;SDS011;10067;53.092;8.800;2023-05-14T03:36:37;13.52;;;9.43;;
19814;SDS011;10067;53.092;8.800;2023-05-14T03:39:05;11.73;;;9.68;;
19814;SDS011;10067;53.092;8.800;2023-05-14T03:41:33;13.38;;;10.25;;
19814;SDS011;10067;53.092;8.800;2023-05-14T03:44:00;11.38;;;9.10;;
19814;SDS011;10067;53.092;8.800;2023-05-14T03:46:26;11.30;;;9.77;;
19814;SDS011;10067;53.092;8.800;2023-05-14T03:48:52;12.52;;;9.60;;
19814;SDS011;10067;53.092;8.800;2023-05-14T03:51:19;11.98;;;9.50;;
19814;SDS011;10067;53.092;8.800;2023-05-14T03:53:45;10.43;;;9.15;;
19814;SDS011;10067;53.092;8.800;2023-05-14T03:56:13;12.40;;;10.30;;
19814;SDS011;10067;53.092;8.800;2023-05-14T03:58:40;14.48;;;11.02;;
19814;SDS011;10067;53.092;8.800;2023-05-14T04:01:06;12.25;;;9.88;;
19814;SDS011;10067;53.092;8.800;2023-05-14T04:03:33;13.70;;;8.73;;
19814;SDS011;10067;53.092;8.800;2023-05-14T04:06:00;11.88;;;9.85;;
19814;SDS011;10067;53.092;8.800;2023-05-14T04:08:26;10.13;;;8.35;;
19814;SDS011;10067;53.092;8.800;2023-05-14T04:10:53;8.90;;;8.00;;
19814;SDS011;10067;53.092;8.800;2023-05-14T04:13:20;12.27;;;9.18;;
19814;SDS011;10067;53.092;8.800;2023-05-14T04:15:47;9.63;;;8.20;;
19814;SDS011;10067;53.092;8.800;2023-05-14T04:18:13;13.65;;;8.23;;
19814;SDS011;10067;53.092;8.800;2023-05-14T04:20:40;10.43;;;8.50;;
19814;SDS011;10067;53.092;8.800;2023-05-14T04:23:06;9.43;;;8.13;;
19814;SDS011;10067;53.092;8.800;2023-05-14T04:25:32;15.48;;;9.38;;
19814;SDS011;10067;53.092;8.800;2023-05-14T04:27:59;12.35;;;9.38;;
19814;SDS011;10067;53.092;8.800;2023-05-14T04:30:26;13.38;;;8.65;;
19814;SDS011;10067;53.092;8.800;2023-05-14T04:32:53;10.98;;;8.57;;
19814;SDS011;10067;53.092;8.800;2023-05-14T04:35:20;10.02;;;8.23;;
19814;SDS011;10067;53.092;8.800;2023-05-14T04:37:46;10.20;;;8.02;;
19814;SDS011;10067;53.092;8.800;2023-05-14T04:40:13;10.52;;;8.10;;
19814;SDS011;10067;53.092;8.800;2023-05-14T04:42:40;10.88;;;7.88;;
19814;SDS011;10067;53.092;8.800;2023-05-14T04:45:08;9.10;;;8.20;;
19814;SDS011;10067;53.092;8.800;2023-05-14T04:47:35;10.13;;;8.10;;
19814;SDS011;10067;53.092;8.800;2023-05-14T04:50:02;10.35;;;8.32;;
19814;SDS011;10067;53.092;8.800;2023-05-14T04:52:29;11.73;;;7.60;;
19814;SDS011;10067;53.092;8.800;2023-05-14T04:54:55;10.20;;;8.20;;
19814;SDS011;10067;53.092;8.800;2023-05-14T04:57:22;8.88;;;7.90;;
19814;SDS011;10067;53.092;8.800;2023-05-14T04:59:49;12.02;;;8.07;;
19814;SDS011;10067;53.092;8.800;2023-05-14T05:02:16;10.80;;;8.05;;
19814;SDS011;10067;53.092;8.800;2023-05-14T05:04:43;10.05;;;7.60;;
19814;SDS011;10067;53.092;8.800;2023-05-14T05:07:11;9.95;;;8.05;;
19814;SDS011;10067;53.092;8.800;2023-05-14T05:09:38;8.35;;;7.50;;
19814;SDS011;10067;53.092;8.800;2023-05-14T05:12:05;9.27;;;7.78;;
19814;SDS011;10067;53.092;8.800;2023-05-14T05:14:31;8.93;;;7.60;;
19814;SDS011;10067;53.092;8.800;2023-05-14T05:16:58;8.40;;;7.60;;
19814;SDS011;10067;53.092;8.800;2023-05-14T05:19:24;9.50;;;7.60;;
19814;SDS011;10067;53.092;8.800;2023-05-14T05:21:52;9.55;;;7.30;;
19814;SDS011;10067;53.092;8.800;2023-05-14T05:24:18;9.23;;;7.50;;
19814;SDS011;10067;53.092;8.800;2023-05-14T05:26:45;9.05;;;7.30;;
19814;SDS011;10067;53.092;8.800;2023-05-14T05:29:11;9.18;;;6.65;;
19814;SDS011;10067;53.092;8.800;2023-05-14T05:31:37;7.88;;;7.05;;
19814;SDS011;10067;53.092;8.800;2023-05-14T05:34:04;8.80;;;7.00;;
19814;SDS011;10067;53.092;8.800;2023-05-14T05:36:30;9.02;;;7.20;;
19814;SDS011;10067;53.092;8.800;2023-05-14T05:38:58;8.27;;;7.40;;
19814;SDS011;10067;53.092;8.800;2023-05-14T05:41:25;8.25;;;6.60;;
19814;SDS011;10067;53.092;8.800;2023-05-14T05:43:51;10.70;;;7.22;;
19814;SDS011;10067;53.092;8.800;2023-05-14T05:46:18;8.52;;;6.72;;
19814;SDS011;10067;53.092;8.800;2023-05-14T05:48:44;7.38;;;6.45;;
19814;SDS011;10067;53.092;8.800;2023-05-14T05:51:10;9.30;;;6.68;;
19814;SDS011;10067;53.092;8.800;2023-05-14T05:53:37;7.35;;;6.07;;
19814;SDS011;10067;53.092;8.800;2023-05-14T05:56:05;11.40;;;6.63;;
19814;SDS011;10067;53.092;8.800;2023-05-14T05:58:31;9.23;;;6.72;;
19814;SDS011;10067;53.092;8.800;2023-05-14T06:00:58;7.75;;;6.60;;
19814;SDS011;10067;53.092;8.800;2023-05-14T06:03:25;10.18;;;7.05;;
19814;SDS011;10067;53.092;8.800;2023-05-14T06:05:51;8.27;;;6.53;;
19814;SDS011;10067;53.092;8.800;2023-05-14T06:08:18;8.35;;;5.90;;
19814;SDS011;10067;53.092;8.800;2023-05-14T06:10:44;6.47;;;5.40;;
19814;SDS011;10067;53.092;8.800;2023-05-14T06:13:12;7.15;;;6.00;;
19814;SDS011;10067;53.092;8.800;2023-05-14T06:15:39;6.80;;;5.82;;
19814;SDS011;10067;53.092;8.800;2023-05-14T06:18:05;6.95;;;6.10;;
19814;SDS011;10067;53.092;8.800;2023-05-14T06:20:31;8.27;;;6.32;;
19814;SDS011;10067;53.092;8.800;2023-05-14T06:22:58;7.18;;;6.43;;
19814;SDS011;10067;53.092;8.800;2023-05-14T06:25:24;8.07;;;5.95;;
19814;SDS011;10067;53.092;8.800;2023-05-14T06:27:50;14.23;;;6.28;;
19814;SDS011;10067;53.092;8.800;2023-05-14T06:30:18;7.97;;;6.03;;
19814;SDS011;10067;53.092;8.800;2023-05-14T06:32:44;6.97;;;6.28;;
19814;SDS011;10067;53.092;8.800;2023-05-14T06:35:11;9.93;;;6.82;;
19814;SDS011;10067;53.092;8.800;2023-05-14T06:37:37;9.40;;;6.57;;
19814;SDS011;10067;53.092;8.800;2023-05-14T06:40:04;9.68;;;6.20;;
19814;SDS011;10067;53.092;8.800;2023-05-14T06:42:31;6.82;;;5.70;;
19814;SDS011;10067;53.092;8.800;2023-05-14T06:44:57;7.00;;;6.10;;
19814;SDS011;10067;53.092;8.800;2023-05-14T06:47:25;7.47;;;6.40;;
19814;SDS011;10067;53.092;8.800;2023-05-14T06:49:52;6.63;;;6.03;;
19814;SDS011;10067;53.092;8.800;2023-05-14T06:52:19;8.50;;;6.18;;
19814;SDS011;10067;53.092;8.800;2023-05-14T06:54:46;8.40;;;5.65;;
19814;SDS011;10067;53.092;8.800;2023-05-14T06:57:12;6.80;;;6.10;;
19814;SDS011;10067;53.092;8.800;2023-05-14T06:59:38;7.75;;;6.45;;
19814;SDS011;10067;53.092;8.800;2023-05-14T07:02:05;7.97;;;6.68;;
19814;SDS011;10067;53.092;8.800;2023-05-14T07:04:33;7.35;;;6.20;;
19814;SDS011;10067;53.092;8.800;2023-05-14T07:07:00;6.72;;;5.55;;
19814;SDS011;10067;53.092;8.800;2023-05-14T07:09:27;7.35;;;5.45;;
19814;SDS011;10067;53.092;8.800;2023-05-14T07:11:53;6.32;;;5.72;;
19814;SDS011;10067;53.092;8.800;2023-05-14T07:14:20;5.90;;;5.30;;
19814;SDS011;10067;53.092;8.800;2023-05-14T07:16:46;7.65;;;5.85;;
19814;SDS011;10067;53.092;8.800;2023-05-14T07:19:12;6.50;;;5.70;;
19814;SDS011;10067;53.092;8.800;2023-05-14T07:21:40;9.30;;;5.13;;
19814;SDS011;10067;53.092;8.800;2023-05-14T07:24:06;7.93;;;5.45;;
19814;SDS011;10067;53.092;8.800;2023-05-14T07:26:33;6.63;;;5.80;;
19814;SDS011;10067;53.092;8.800;2023-05-14T07:28:59;5.63;;;5.13;;
19814;SDS011;10067;53.092;8.800;2023-05-14T07:31:26;9.18;;;4.80;;
19814;SDS011;10067;53.092;8.800;2023-05-14T07:33:52;6.00;;;5.40;;
19814;SDS011;10067;53.092;8.800;2023-05-14T07:36:18;7.10;;;5.50;;
19814;SDS011;10067;53.092;8.800;2023-05-14T07:38:46;5.70;;;5.10;;
19814;SDS011;10067;53.092;8.800;2023-05-14T07:41:12;5.68;;;5.05;;
19814;SDS011;10067;53.092;8.800;2023-05-14T07:43:39;5.18;;;4.50;;
19814;SDS011;10067;53.092;8.800;2023-05-14T07:46:05;5.82;;;5.07;;
19814;SDS011;10067;53.092;8.800;2023-05-14T07:48:32;5.97;;;5.25;;
19814;SDS011;10067;53.092;8.800;2023-05-14T07:50:58;5.40;;;4.43;;
19814;SDS011;10067;53.092;8.800;2023-05-14T07:53:24;5.05;;;4.55;;
19814;SDS011;10067;53.092;8.800;2023-05-14T07:55:52;4.50;;;4.03;;
19814;SDS011;10067;53.092;8.800;2023-05-14T07:58:19;5.47;;;4.70;;
19814;SDS011;10067;53.092;8.800;2023-05-14T08:00:45;7.53;;;4.90;;
19814;SDS011;10067;53.092;8.800;2023-05-14T08:03:11;7.82;;;4.78;;
19814;SDS011;10067;53.092;8.800;2023-05-14T08:05:38;5.97;;;4.20;;
19814;SDS011;10067;53.092;8.800;2023-05-14T08:08:04;5.00;;;4.50;;
19814;SDS011;10067;53.092;8.800;2023-05-14T08:10:31;6.43;;;4.38;;
19814;SDS011;10067;53.092;8.800;2023-05-14T08:12:58;5.53;;;4.28;;
19814;SDS011;10067;53.092;8.800;2023-05-14T08:15:25;5.95;;;4.30;;
19814;SDS011;10067;53.092;8.800;2023-05-14T08:17:51;6.63;;;4.80;;
19814;SDS011;10067;53.092;8.800;2023-05-14T08:20:18;4.93;;;4.10;;
19814;SDS011;10067;53.092;8.800;2023-05-14T08:22:44;7.38;;;4.88;;
19814;SDS011;10067;53.092;8.800;2023-05-14T08:25:10;6.32;;;5.03;;
19814;SDS011;10067;53.092;8.800;2023-05-14T08:27:37;5.95;;;4.18;;
19814;SDS011;10067;53.092;8.800;2023-05-14T08:30:05;7.75;;;5.07;;
19814;SDS011;10067;53.092;8.800;2023-05-14T08:32:32;9.07;;;4.45;;
19814;SDS011;10067;53.092;8.800;2023-05-14T08:34:58;5.80;;;4.35;;
19814;SDS011;10067;53.092;8.800;2023-05-14T08:37:24;5.57;;;4.40;;
19814;SDS011;10067;53.092;8.800;2023-05-14T08:39:51;11.85;;;4.88;;
19814;SDS011;10067;53.092;8.800;2023-05-14T08:42:18;4.75;;;4.13;;
19814;SDS011;10067;53.092;8.800;2023-05-14T08:44:46;5.05;;;4.20;;
19814;SDS011;10067;53.092;8.800;2023-05-14T08:47:14;7.85;;;4.53;;
19814;SDS011;10067;53.092;8.800;2023-05-14T08:49:42;8.25;;;4.45;;
19814;SDS011;10067;53.092;8.800;2023-05-14T08:52:09;9.38;;;4.07;;
19814;SDS011;10067;53.092;8.800;2023-05-14T08:54:36;5.28;;;3.95;;
19814;SDS011;10067;53.092;8.800;2023-05-14T08:57:03;6.80;;;4.82;;
19814;SDS011;10067;53.092;8.800;2023-05-14T08:59:30;4.93;;;4.40;;
19814;SDS011;10067;53.092;8.800;2023-05-14T09:01:57;6.72;;;4.03;;
19814;SDS011;10067;53.092;8.800;2023-05-14T09:04:27;5.93;;;4.20;;
19814;SDS011;10067;53.092;8.800;2023-05-14T09:06:54;4.30;;;3.75;;
19814;SDS011;10067;53.092;8.800;2023-05-14T09:09:21;7.28;;;4.20;;
19814;SDS011;10067;53.092;8.800;2023-05-14T09:11:47;4.28;;;3.83;;
19814;SDS011;10067;53.092;8.800;2023-05-14T09:14:14;5.25;;;3.78;;
19814;SDS011;10067;53.092;8.800;2023-05-14T09:16:41;5.32;;;3.95;;
19814;SDS011;10067;53.092;8.800;2023-05-14T09:19:10;4.90;;;3.67;;
19814;SDS011;10067;53.092;8.800;2023-05-14T09:21:38;4.88;;;3.60;;
19814;SDS011;10067;53.092;8.800;2023-05-14T09:24:07;5.72;;;3.88;;
19814;SDS011;10067;53.092;8.800;2023-05-14T09:26:37;6.65;;;4.00;;
19814;SDS011;10067;53.092;8.800;2023-05-14T09:29:03;4.80;;;4.30;;
19814;SDS011;10067;53.092;8.800;2023-05-14T09:31:30;6.00;;;3.85;;
19814;SDS011;10067;53.092;8.800;2023-05-14T09:33:57;7.40;;;4.20;;
19814;SDS011;10067;53.092;8.800;2023-05-14T09:36:26;5.25;;;3.83;;
19814;SDS011;10067;53.092;8.800;2023-05-14T09:38:56;7.82;;;3.88;;
19814;SDS011;10067;53.092;8.800;2023-05-14T09:41:22;4.55;;;3.83;;
19814;SDS011;10067;53.092;8.800;2023-05-14T09:43:49;4.45;;;3.70;;
19814;SDS011;10067;53.092;8.800;2023-05-14T09:46:16;7.15;;;3.67;;
19814;SDS011;10067;53.092;8.800;2023-05-14T09:48:42;4.28;;;3.67;;
19814;SDS011;10067;53.092;8.800;2023-05-14T09:51:10;5.65;;;3.92;;
19814;SDS011;10067;53.092;8.800;2023-05-14T09:53:36;5.68;;;3.67;;
19814;SDS011;10067;53.092;8.800;2023-05-14T09:56:06;7.32;;;4.13;;
19814;SDS011;10067;53.092;8.800;2023-05-14T09:58:33;5.13;;;3.40;;
19814;SDS011;10067;53.092;8.800;2023-05-14T10:00:59;4.45;;;3.67;;
19814;SDS011;10067;53.092;8.800;2023-05-14T10:03:26;4.25;;;3.65;;
19814;SDS011;10067;53.092;8.800;2023-05-14T10:05:54;8.00;;;4.10;;
19814;SDS011;10067;53.092;8.800;2023-05-14T10:08:23;4.82;;;3.60;;
19814;SDS011;10067;53.092;8.800;2023-05-14T10:10:50;4.20;;;3.58;;
19814;SDS011;10067;53.092;8.800;2023-05-14T10:13:21;6.60;;;3.92;;
19814;SDS011;10067;53.092;8.800;2023-05-14T10:15:48;5.72;;;3.90;;
19814;SDS011;10067;53.092;8.800;2023-05-14T10:18:16;6.55;;;3.90;;
19814;SDS011;10067;53.092;8.800;2023-05-14T10:20:44;5.60;;;3.63;;
19814;SDS011;10067;53.092;8.800;2023-05-14T10:23:13;6.13;;;3.63;;
19814;SDS011;10067;53.092;8.800;2023-05-14T10:25:39;6.43;;;4.35;;
19814;SDS011;10067;53.092;8.800;2023-05-14T10:28:06;4.00;;;3.40;;
19814;SDS011;10067;53.092;8.800;2023-05-14T10:30:34;5.18;;;3.78;;
19814;SDS011;10067;53.092;8.800;2023-05-14T10:33:06;4.47;;;3.65;;
19814;SDS011;10067;53.092;8.800;2023-05-14T10:38:14;5.82;;;4.00;;
19814;SDS011;10067;53.092;8.800;2023-05-14T10:40:41;5.47;;;3.85;;
19814;SDS011;10067;53.092;8.800;2023-05-14T10:43:07;8.68;;;4.35;;
19814;SDS011;10067;53.092;8.800;2023-05-14T10:45:36;6.55;;;4.28;;
19814;SDS011;10067;53.092;8.800;2023-05-14T10:48:04;6.18;;;4.32;;
19814;SDS011;10067;53.092;8.800;2023-05-14T10:50:31;4.05;;;3.35;;
19814;SDS011;10067;53.092;8.800;2023-05-14T10:52:58;5.28;;;3.58;;
19814;SDS011;10067;53.092;8.800;2023-05-14T10:55:24;4.28;;;3.63;;
19814;SDS011;10067;53.092;8.800;2023-05-14T10:57:51;5.47;;;3.58;;
19814;SDS011;10067;53.092;8.800;2023-05-14T11:00:17;4.07;;;3.63;;
19814;SDS011;10067;53.092;8.800;2023-05-14T11:02:46;6.68;;;3.65;;
19814;SDS011;10067;53.092;8.800;2023-05-14T11:05:12;4.95;;;3.17;;
19814;SDS011;10067;53.092;8.800;2023-05-14T11:07:40;7.38;;;3.55;;
19814;SDS011;10067;53.092;8.800;2023-05-14T11:10:07;3.72;;;3.40;;
19814;SDS011;10067;53.092;8.800;2023-05-14T11:12:34;4.93;;;3.47;;
19814;SDS011;10067;53.092;8.800;2023-05-14T11:15:02;6.03;;;3.50;;
19814;SDS011;10067;53.092;8.800;2023-05-14T11:17:29;6.03;;;3.30;;
19814;SDS011;10067;53.092;8.800;2023-05-14T11:19:57;7.57;;;4.50;;
19814;SDS011;10067;53.092;8.800;2023-05-14T11:22:24;6.20;;;4.10;;
19814;SDS011;10067;53.092;8.800;2023-05-14T11:24:50;7.40;;;4.20;;
19814;SDS011;10067;53.092;8.800;2023-05-14T11:27:17;6.68;;;3.88;;
19814;SDS011;10067;53.092;8.800;2023-05-14T11:29:44;6.50;;;3.60;;
19814;SDS011;10067;53.092;8.800;2023-05-14T11:32:11;5.82;;;3.50;;
19814;SDS011;10067;53.092;8.800;2023-05-14T11:34:40;4.18;;;3.17;;
19814;SDS011;10067;53.092;8.800;2023-05-14T11:37:10;6.47;;;3.55;;
19814;SDS011;10067;53.092;8.800;2023-05-14T11:39:37;4.47;;;3.35;;
19814;SDS011;10067;53.092;8.800;2023-05-14T11:42:07;8.23;;;4.30;;
19814;SDS011;10067;53.092;8.800;2023-05-14T11:44:36;7.60;;;3.80;;
19814;SDS011;10067;53.092;8.800;2023-05-14T11:47:03;7.50;;;3.83;;
19814;SDS011;10067;53.092;8.800;2023-05-14T11:49:30;7.38;;;3.85;;
19814;SDS011;10067;53.092;8.800;2023-05-14T11:52:00;4.80;;;4.13;;
19814;SDS011;10067;53.092;8.800;2023-05-14T11:54:28;9.48;;;4.80;;
19814;SDS011;10067;53.092;8.800;2023-05-14T11:56:54;6.90;;;4.10;;
19814;SDS011;10067;53.092;8.800;2023-05-14T11:59:22;6.72;;;3.80;;
19814;SDS011;10067;53.092;8.800;2023-05-14T12:01:49;7.93;;;3.90;;
19814;SDS011;10067;53.092;8.800;2023-05-14T12:04:16;6.82;;;5.07;;
19814;SDS011;10067;53.092;8.800;2023-05-14T12:06:46;7.88;;;5.10;;
19814;SDS011;10067;53.092;8.800;2023-05-14T12:09:12;6.07;;;4.15;;
19814;SDS011;10067;53.092;8.800;2023-05-14T12:11:43;5.10;;;3.92;;
19814;SDS011;10067;53.092;8.800;2023-05-14T12:14:10;4.68;;;3.67;;
19814;SDS011;10067;53.092;8.800;2023-05-14T12:16:38;7.60;;;4.78;;
19814;SDS011;10067;53.092;8.800;2023-05-14T12:19:08;6.03;;;4.30;;
19814;SDS011;10067;53.092;8.800;2023-05-14T12:24:17;6.38;;;3.60;;
19814;SDS011;10067;53.092;8.800;2023-05-14T12:26:59;4.65;;;3.60;;
19814;SDS011;10067;53.092;8.800;2023-05-14T12:29:28;5.60;;;3.50;;
19814;SDS011;10067;53.092;8.800;2023-05-14T12:31:56;3.88;;;3.47;;
19814;SDS011;10067;53.092;8.800;2023-05-14T12:34:28;5.07;;;3.67;;
19814;SDS011;10067;53.092;8.800;2023-05-14T12:36:55;4.50;;;3.67;;
19814;SDS011;10067;53.092;8.800;2023-05-14T12:39:22;3.75;;;3.30;;
19814;SDS011;10067;53.092;8.800;2023-05-14T12:41:49;3.25;;;2.95;;
19814;SDS011;10067;53.092;8.800;2023-05-14T12:44:19;9.18;;;3.67;;
19814;SDS011;10067;53.092;8.800;2023-05-14T12:46:49;4.57;;;3.33;;
19814;SDS011;10067;53.092;8.800;2023-05-14T12:49:15;5.20;;;3.15;;
19814;SDS011;10067;53.092;8.800;2023-05-14T12:51:44;6.78;;;3.10;;
19814;SDS011;10067;53.092;8.800;2023-05-14T12:54:11;3.50;;;3.20;;
19814;SDS011;10067;53.092;8.800;2023-05-14T12:56:40;8.60;;;4.25;;
19814;SDS011;10067;53.092;8.800;2023-05-14T12:59:07;4.00;;;3.58;;
19814;SDS011;10067;53.092;8.800;2023-05-14T13:01:37;5.63;;;3.85;;
19814;SDS011;10067;53.092;8.800;2023-05-14T13:04:03;4.47;;;3.13;;
19814;SDS011;10067;53.092;8.800;2023-05-14T13:06:30;9.20;;;3.33;;
19814;SDS011;10067;53.092;8.800;2023-05-14T13:08:56;9.43;;;3.28;;
19814;SDS011;10067;53.092;8.800;2023-05-14T13:11:43;4.10;;;2.75;;
19814;SDS011;10067;53.092;8.800;2023-05-14T13:14:09;5.32;;;3.60;;
19814;SDS011;10067;53.092;8.800;2023-05-14T13:16:37;7.05;;;3.22;;
19814;SDS011;10067;53.092;8.800;2023-05-14T13:19:05;5.47;;;3.55;;
19814;SDS011;10067;53.092;8.800;2023-05-14T13:21:41;5.35;;;3.35;;
19814;SDS011;10067;53.092;8.800;2023-05-14T13:24:08;7.05;;;4.68;;
19814;SDS011;10067;53.092;8.800;2023-05-14T13:26:37;9.18;;;5.65;;
19814;SDS011;10067;53.092;8.800;2023-05-14T13:29:04;4.65;;;3.92;;
19814;SDS011;10067;53.092;8.800;2023-05-14T13:31:30;5.70;;;3.90;;
19814;SDS011;10067;53.092;8.800;2023-05-14T13:33:58;6.95;;;3.55;;
19814;SDS011;10067;53.092;8.800;2023-05-14T13:36:26;6.40;;;4.25;;
19814;SDS011;10067;53.092;8.800;2023-05-14T13:38:53;6.00;;;4.43;;
19814;SDS011;10067;53.092;8.800;2023-05-14T13:41:19;7.28;;;5.45;;
19814;SDS011;10067;53.092;8.800;2023-05-14T13:43:45;12.50;;;4.53;;
19814;SDS011;10067;53.092;8.800;2023-05-14T13:46:12;4.72;;;3.78;;
19814;SDS011;10067;53.092;8.800;2023-05-14T13:48:38;4.70;;;3.83;;
19814;SDS011;10067;53.092;8.800;2023-05-14T13:51:06;4.10;;;3.65;;
19814;SDS011;10067;53.092;8.800;2023-05-14T13:53:32;6.80;;;5.45;;
19814;SDS011;10067;53.092;8.800;2023-05-14T13:55:59;7.13;;;3.80;;
19814;SDS011;10067;53.092;8.800;2023-05-14T13:58:26;12.50;;;4.30;;
19814;SDS011;10067;53.092;8.800;2023-05-14T14:00:52;8.05;;;4.60;;
19814;SDS011;10067;53.092;8.800;2023-05-14T14:03:19;8.20;;;4.63;;
19814;SDS011;10067;53.092;8.800;2023-05-14T14:05:45;7.47;;;4.28;;
19814;SDS011;10067;53.092;8.800;2023-05-14T14:08:13;6.55;;;5.10;;
19814;SDS011;10067;53.092;8.800;2023-05-14T14:10:39;4.53;;;4.00;;
19814;SDS011;10067;53.092;8.800;2023-05-14T14:13:06;6.55;;;4.60;;
19814;SDS011;10067;53.092;8.800;2023-05-14T14:15:33;7.03;;;4.20;;
19814;SDS011;10067;53.092;8.800;2023-05-14T14:17:59;5.65;;;5.05;;
19814;SDS011;10067;53.092;8.800;2023-05-14T14:20:25;8.82;;;5.80;;
19814;SDS011;10067;53.092;8.800;2023-05-14T14:22:52;12.15;;;7.63;;
19814;SDS011;10067;53.092;8.800;2023-05-14T14:25:19;9.20;;;5.00;;
19814;SDS011;10067;53.092;8.800;2023-05-14T14:27:46;6.45;;;5.45;;
19814;SDS011;10067;53.092;8.800;2023-05-14T14:30:13;5.78;;;4.80;;
19814;SDS011;10067;53.092;8.800;2023-05-14T14:32:41;5.55;;;4.47;;
19814;SDS011;10067;53.092;8.800;2023-05-14T14:35:08;10.18;;;5.93;;
19814;SDS011;10067;53.092;8.800;2023-05-14T14:37:34;5.78;;;4.57;;
19814;SDS011;10067;53.092;8.800;2023-05-14T14:40:01;8.23;;;4.82;;
19814;SDS011;10067;53.092;8.800;2023-05-14T14:42:29;7.50;;;5.05;;
19814;SDS011;10067;53.092;8.800;2023-05-14T14:44:55;6.47;;;4.45;;